Time;durP1;ratioP1;P1;durP2;ratioP2;P2;SDS_P1;SDS_P2;PMS_P1;PMS_P2;Temp;Humidity;BMP_temperature;BMP_pressure;BME280_temperature;BME280_humidity;BME280_pressure;Samples;Min_cycle;Max_cycle;Signal;HPM_P1;HPM_P2
2022/01/15 00:00:01;;;;;;;14.70;10.50;;;1.50;96.30;;;;;;4883681;29;20422;-79
2022/01/15 05:00:16;;;;;;;11.10;7.20;;;1.10;96.30;;;;;;5940991;23;20650;-79
2022/01/15 05:02:42;;;;;;;10.20;7.10;;;1.10;96.30;;;;;;4895999;29;20445;-80
2022/01/15 05:05:08;;;;;;;13.77;7.40;;;1.10;96.30;;;;;;4897867;29;20417;-79
2022/01/15 05:07:34;;;;;;;11.03;8.50;;;1.10;96.30;;;;;;4898664;29;20173;-79
2022/01/15 05:09:59;;;;;;;11.70;8.10;;;1.10;96.30;;;;;;4898161;29;20846;-79
2022/01/15 05:14:50;;;;;;;11.80;9.30;;;1.00;96.30;;;;;;4901285;29;20299;-77
2022/01/15 05:17:16;;;;;;;11.30;8.37;;;1.00;96.30;;;;;;4901907;29;20209;-77
2022/01/15 05:19:41;;;;;;;17.40;7.30;;;1.00;96.30;;;;;;4890664;29;20270;-79
2022/01/15 09:01:03;;;;;;;14.53;8.57;;;1.50;96.30;;;;;;5619955;23;20875;-75
2022/01/15 09:03:29;;;;;;;18.90;10.10;;;1.50;96.30;;;;;;4893496;29;20437;-74
2022/01/15 09:05:55;;;;;;;24.13;9.47;;;1.50;96.30;;;;;;4880530;29;20504;-73
2022/01/15 09:08:24;;;;;;;19.00;8.90;;;1.50;96.30;;;;;;4880652;29;20513;-74
2022/01/15 09:11:29;;;;;;;18.20;9.77;;;1.60;96.30;;;;;;5114571;23;20207;-74
2022/01/15 09:13:54;;;;;;;23.83;8.53;;;1.60;96.30;;;;;;4866674;29;20861;-74
2022/01/15 09:16:20;;;;;;;22.37;6.57;;;1.60;96.30;;;;;;4879303;29;20422;-73
2022/01/15 09:18:45;;;;;;;13.63;6.60;;;1.60;96.30;;;;;;4878435;29;20178;-74
2022/01/15 09:21:10;;;;;;;12.20;7.03;;;1.70;96.30;;;;;;4878839;29;20237;-74
2022/01/15 09:23:36;;;;;;;11.90;6.17;;;1.70;96.30;;;;;;4878778;29;20174;-74
2022/01/15 09:26:02;;;;;;;13.90;6.80;;;1.80;96.30;;;;;;4862479;29;20185;-74
2022/01/15 09:31:16;;;;;;;13.37;7.03;;;1.90;96.30;;;;;;4860386;29;20206;-74
2022/01/15 09:33:41;;;;;;;14.03;7.13;;;1.90;96.30;;;;;;4861927;29;20458;-74
2022/01/15 09:36:07;;;;;;;11.97;6.60;;;1.90;96.30;;;;;;4875822;29;20643;-73
2022/01/15 09:38:33;;;;;;;14.87;6.97;;;1.80;96.30;;;;;;4878470;29;20224;-73
2022/01/15 09:40:58;;;;;;;13.93;7.00;;;1.80;96.30;;;;;;4878360;29;20194;-73
2022/01/15 09:43:24;;;;;;;16.23;7.20;;;1.80;96.30;;;;;;4878266;29;20811;-73
2022/01/15 09:45:52;;;;;;;9.33;5.00;;;1.90;96.30;;;;;;4878495;29;20193;-72
2022/01/15 09:48:19;;;;;;;15.57;4.80;;;1.90;96.30;;;;;;4878414;29;20236;-73
2022/01/15 09:50:46;;;;;;;22.63;4.90;;;2.00;96.30;;;;;;4878342;29;20506;-74
2022/01/15 09:53:16;;;;;;;12.40;4.20;;;2.00;96.30;;;;;;4877129;29;20426;-74
2022/01/15 09:55:43;;;;;;;14.73;5.37;;;2.10;96.30;;;;;;4878131;29;20556;-73
2022/01/15 09:58:08;;;;;;;13.23;5.30;;;2.10;96.30;;;;;;4853091;29;20430;-74
2022/01/15 10:00:34;;;;;;;14.33;5.17;;;2.10;96.30;;;;;;4878218;29;20442;-76
2022/01/15 10:02:59;;;;;;;14.87;6.77;;;2.20;96.30;;;;;;4877979;29;20178;-73
2022/01/15 10:05:25;;;;;;;8.07;5.67;;;2.20;96.30;;;;;;4877573;29;20185;-73
2022/01/15 10:08:04;;;;;;;15.73;6.10;;;2.20;96.30;;;;;;4878275;29;20177;-73
2022/01/15 10:10:32;;;;;;;13.30;5.83;;;2.20;96.30;;;;;;4878048;29;20450;-73
2022/01/15 10:13:15;;;;;;;13.60;5.30;;;2.20;96.30;;;;;;4878116;29;20445;-73
2022/01/15 10:15:43;;;;;;;14.70;5.30;;;2.20;96.30;;;;;;4861200;29;20466;-73
2022/01/15 10:18:19;;;;;;;11.50;5.73;;;2.20;96.30;;;;;;4878219;29;20914;-74
2022/01/15 10:20:44;;;;;;;13.73;4.70;;;2.20;96.30;;;;;;4878007;29;20785;-74
2022/01/15 10:23:18;;;;;;;15.53;4.40;;;2.20;96.30;;;;;;4877777;29;20413;-74
2022/01/15 10:25:44;;;;;;;10.20;4.23;;;2.20;96.30;;;;;;4874765;29;20185;-74
2022/01/15 10:28:10;;;;;;;10.70;3.80;;;2.30;96.30;;;;;;4845986;29;20426;-74
2022/01/15 10:30:36;;;;;;;14.53;4.43;;;2.30;96.30;;;;;;4868913;29;20457;-74
2022/01/15 10:33:05;;;;;;;19.43;4.43;;;2.40;96.30;;;;;;4861294;29;20190;-74
2022/01/15 10:35:42;;;;;;;12.17;3.60;;;2.50;96.30;;;;;;4872303;29;20466;-74
2022/01/15 10:38:10;;;;;;;13.10;3.40;;;2.50;96.30;;;;;;4877764;29;20409;-74
2022/01/15 10:40:41;;;;;;;15.57;4.27;;;2.50;96.30;;;;;;4877937;29;20445;-74
2022/01/15 10:43:08;;;;;;;19.73;3.93;;;2.60;96.30;;;;;;4876603;29;20482;-74
2022/01/15 10:45:45;;;;;;;21.87;4.37;;;2.60;96.30;;;;;;4877874;29;20418;-74
2022/01/15 10:48:21;;;;;;;10.47;4.17;;;2.60;96.30;;;;;;4881428;29;20418;-75
2022/01/15 10:50:56;;;;;;;13.30;4.20;;;2.60;96.30;;;;;;4877482;29;20433;-75
2022/01/15 10:53:36;;;;;;;12.60;3.50;;;2.60;96.30;;;;;;4881449;29;20493;-75
2022/01/15 10:56:03;;;;;;;9.43;3.83;;;2.60;96.30;;;;;;4864652;29;20463;-76
2022/01/15 10:58:29;;;;;;;19.00;4.70;;;2.50;96.30;;;;;;4881288;29;20510;-75
2022/01/15 11:00:54;;;;;;;20.03;3.67;;;2.50;96.30;;;;;;4881129;29;20520;-75
2022/01/15 11:03:20;;;;;;;17.33;5.17;;;2.60;96.30;;;;;;4880940;29;20189;-77
2022/01/15 11:05:51;;;;;;;13.27;3.60;;;2.60;96.30;;;;;;4864141;29;20192;-77
2022/01/15 11:08:20;;;;;;;10.37;4.17;;;2.60;96.30;;;;;;4881094;29;20529;-75
2022/01/15 11:10:47;;;;;;;17.67;5.20;;;2.60;96.30;;;;;;4881059;29;20795;-77
2022/01/15 11:13:15;;;;;;;16.47;4.60;;;2.60;96.30;;;;;;4863996;29;20502;-75
2022/01/15 11:15:43;;;;;;;9.80;4.07;;;2.60;96.30;;;;;;4864107;29;20557;-75
2022/01/15 11:18:16;;;;;;;9.17;3.83;;;2.60;96.30;;;;;;4864579;29;20509;-74
2022/01/15 11:33:39;;;;;;;16.03;3.67;;;2.60;96.30;;;;;;4885555;29;20492;-80
2022/01/15 11:36:06;;;;;;;18.97;4.30;;;2.60;96.30;;;;;;4887134;29;20473;-80
2022/01/15 11:38:50;;;;;;;13.57;3.80;;;2.70;96.30;;;;;;4885895;29;20421;-80
2022/01/15 11:41:28;;;;;;;13.30;4.40;;;2.80;96.30;;;;;;4899859;29;20433;-80
2022/01/15 11:43:57;;;;;;;12.53;6.40;;;2.80;96.30;;;;;;4900097;29;20429;-80
2022/01/15 11:46:26;;;;;;;28.43;4.97;;;2.80;96.30;;;;;;4883318;29;20440;-80
2022/01/15 11:49:12;;;;;;;9.70;3.20;;;2.80;96.30;;;;;;4864570;29;20438;-80
2022/01/15 11:51:37;;;;;;;9.97;3.23;;;2.80;96.30;;;;;;4881100;29;20818;-79
2022/01/15 11:54:11;;;;;;;18.10;4.00;;;2.70;96.30;;;;;;4864062;29;20441;-80
2022/01/15 11:56:39;;;;;;;8.03;3.50;;;2.60;96.30;;;;;;4864152;29;20229;-80
2022/01/15 11:59:25;;;;;;;18.10;4.63;;;2.60;96.30;;;;;;4890657;29;20429;-79
2022/01/15 12:01:52;;;;;;;15.37;3.67;;;2.60;96.30;;;;;;4885114;29;20437;-79
2022/01/15 12:04:28;;;;;;;13.93;3.50;;;2.80;96.30;;;;;;4892348;29;20422;-79
2022/01/15 12:07:05;;;;;;;14.90;3.60;;;2.80;96.30;;;;;;4863974;29;20430;-79
2022/01/15 12:09:36;;;;;;;11.13;4.63;;;2.80;96.30;;;;;;4879795;29;20433;-79
2022/01/15 12:12:31;;;;;;;10.27;3.60;;;2.70;96.30;;;;;;4880388;29;20418;-79
2022/01/15 12:15:01;;;;;;;8.53;3.30;;;2.50;96.30;;;;;;4862670;29;20598;-78
2022/01/15 12:17:35;;;;;;;10.57;3.43;;;2.50;96.30;;;;;;4863072;29;20429;-78
2022/01/15 12:20:06;;;;;;;12.53;4.17;;;2.40;96.30;;;;;;4869932;29;20481;-79
2022/01/15 12:22:48;;;;;;;14.17;3.70;;;2.50;96.30;;;;;;4881608;29;20436;-78
2022/01/15 12:25:16;;;;;;;12.10;4.60;;;2.50;96.30;;;;;;4898068;29;20429;-78
2022/01/15 12:27:45;;;;;;;10.47;3.23;;;2.50;96.30;;;;;;4881613;29;20430;-78
2022/01/15 12:30:17;;;;;;;13.10;4.30;;;2.50;96.30;;;;;;4898332;29;20532;-78
2022/01/15 12:32:44;;;;;;;16.40;4.40;;;2.50;96.30;;;;;;4911164;29;20447;-78
2022/01/15 12:35:16;;;;;;;14.50;3.30;;;2.60;96.30;;;;;;4910377;29;20517;-80
2022/01/15 12:38:07;;;;;;;13.87;4.17;;;2.70;96.30;;;;;;4881954;29;21000;-79
2022/01/15 12:40:44;;;;;;;17.80;4.00;;;2.70;96.30;;;;;;4898799;29;20444;-80
2022/01/15 12:43:11;;;;;;;13.57;4.30;;;2.70;96.30;;;;;;4899584;29;20413;-79
2022/01/15 12:45:39;;;;;;;11.97;3.60;;;2.70;96.30;;;;;;4917337;29;20459;-80
2022/01/15 12:48:07;;;;;;;10.63;3.90;;;2.70;96.30;;;;;;4917799;29;20928;-80
2022/01/15 12:50:53;;;;;;;12.27;3.93;;;2.80;96.30;;;;;;4917704;29;20927;-80
2022/01/15 12:53:21;;;;;;;11.97;3.37;;;2.70;96.30;;;;;;4899965;29;20420;-80
2022/01/15 12:55:47;;;;;;;14.17;4.03;;;2.80;96.30;;;;;;4917298;29;20464;-79
2022/01/15 12:58:24;;;;;;;8.80;3.07;;;2.60;96.30;;;;;;4899902;29;20760;-78
2022/01/15 13:00:51;;;;;;;8.50;3.57;;;2.70;96.30;;;;;;4917477;29;20495;-79
2022/01/15 13:03:22;;;;;;;14.40;5.60;;;2.70;96.30;;;;;;4899363;29;20427;-79
2022/01/15 13:05:53;;;;;;;11.50;5.33;;;2.90;96.30;;;;;;4900345;29;20762;-80
2022/01/15 13:08:27;;;;;;;11.20;4.47;;;2.90;96.30;;;;;;4900360;29;20416;-80
2022/01/15 13:11:04;;;;;;;15.67;6.87;;;2.90;96.30;;;;;;4898673;29;20444;-79
2022/01/15 13:13:34;;;;;;;12.27;5.63;;;2.80;96.30;;;;;;4916031;29;20452;-78
2022/01/15 13:16:15;;;;;;;7.77;3.53;;;2.70;96.30;;;;;;4898764;29;20465;-78
2022/01/15 13:18:42;;;;;;;14.70;6.03;;;2.60;96.30;;;;;;4899352;29;20553;-79
2022/01/15 13:21:11;;;;;;;12.23;4.97;;;2.60;96.30;;;;;;4916028;29;20446;-79
2022/01/15 13:24:08;;;;;;;11.70;4.50;;;2.60;96.30;;;;;;4899464;29;20915;-79
2022/01/15 13:26:47;;;;;;;9.30;4.40;;;2.70;96.30;;;;;;4899414;29;20439;-79
2022/01/15 13:29:16;;;;;;;8.97;3.90;;;2.70;96.30;;;;;;4899839;29;20412;-79
2022/01/15 13:31:43;;;;;;;15.90;4.30;;;2.60;96.30;;;;;;4916397;29;20452;-79
2022/01/15 13:34:11;;;;;;;13.07;4.10;;;2.60;96.30;;;;;;4898693;29;20421;-79
2022/01/15 13:36:37;;;;;;;10.67;3.73;;;2.70;96.30;;;;;;4916191;29;20424;-78
2022/01/15 13:39:04;;;;;;;12.83;3.90;;;2.50;96.30;;;;;;4888873;29;20421;-79
2022/01/15 13:41:35;;;;;;;12.10;3.43;;;2.40;96.30;;;;;;4881050;29;20449;-79
2022/01/15 13:44:07;;;;;;;26.87;15.77;;;2.40;96.30;;;;;;4897035;29;20980;-79
2022/01/15 13:46:38;;;;;;;14.30;5.03;;;2.50;96.30;;;;;;4897511;29;20435;-79
2022/01/15 13:49:13;;;;;;;13.27;4.67;;;2.50;96.30;;;;;;4899480;29;20409;-79
2022/01/15 13:55:03;;;;;;;16.50;7.90;;;2.40;96.30;;;;;;4915762;29;20531;-79
2022/01/15 13:57:31;;;;;;;10.80;4.63;;;2.50;96.30;;;;;;4915866;29;20554;-79
2022/01/15 14:00:20;;;;;;;15.17;5.30;;;2.50;96.30;;;;;;4916082;29;20802;-78
2022/01/15 14:02:50;;;;;;;14.37;8.40;;;2.50;96.30;;;;;;4915463;29;20487;-78
2022/01/15 14:05:26;;;;;;;17.07;8.87;;;2.50;96.30;;;;;;4898410;29;20483;-78
2022/01/15 14:07:52;;;;;;;29.10;14.10;;;2.50;96.30;;;;;;4916064;29;20899;-78
2022/01/15 14:10:20;;;;;;;28.13;16.20;;;2.50;96.30;;;;;;4915932;29;20440;-78
2022/01/15 14:13:07;;;;;;;21.63;9.43;;;2.40;96.30;;;;;;4916283;29;20420;-78
2022/01/15 14:15:43;;;;;;;16.17;8.53;;;2.40;96.30;;;;;;4915300;29;20586;-78
2022/01/15 14:18:19;;;;;;;12.50;4.20;;;2.30;96.30;;;;;;4916061;29;20740;-79
2022/01/15 14:23:28;;;;;;;15.93;7.47;;;2.10;96.30;;;;;;4918536;29;20500;-79
2022/01/15 14:26:13;;;;;;;14.50;4.80;;;2.10;96.30;;;;;;4902739;29;20428;-78
2022/01/15 14:28:39;;;;;;;19.53;4.87;;;1.90;96.30;;;;;;4902799;29;21012;-79
2022/01/15 14:31:04;;;;;;;9.73;5.60;;;1.90;96.30;;;;;;4919351;29;20448;-77
2022/01/15 14:33:30;;;;;;;14.10;6.10;;;1.80;96.30;;;;;;4918647;29;20231;-78
2022/01/15 14:35:55;;;;;;;8.90;4.93;;;1.90;96.30;;;;;;4902247;29;20664;-78
2022/01/15 14:38:22;;;;;;;10.70;4.90;;;1.80;96.30;;;;;;4913786;29;20217;-78
2022/01/15 14:40:49;;;;;;;10.90;5.33;;;1.70;96.30;;;;;;4900055;29;20543;-78
2022/01/15 14:43:15;;;;;;;14.40;5.93;;;1.60;96.30;;;;;;4899790;29;20424;-77
2022/01/15 14:45:40;;;;;;;10.00;5.67;;;1.50;96.30;;;;;;4883479;29;20429;-78
2022/01/15 14:48:06;;;;;;;10.33;5.53;;;1.50;96.30;;;;;;4900188;29;20188;-78
2022/01/15 14:50:32;;;;;;;9.83;5.60;;;1.40;96.30;;;;;;4899811;29;20200;-78
2022/01/15 14:52:57;;;;;;;15.23;5.43;;;1.40;96.30;;;;;;4900025;29;20189;-78
2022/01/15 14:55:23;;;;;;;13.80;6.40;;;1.40;96.30;;;;;;4882692;29;20204;-77
2022/01/15 14:57:49;;;;;;;14.40;5.40;;;1.30;96.30;;;;;;4900224;29;20176;-77
2022/01/15 15:00:15;;;;;;;21.57;6.70;;;1.20;96.30;;;;;;4899908;29;20193;-78
2022/01/15 15:02:40;;;;;;;10.87;5.43;;;1.20;96.30;;;;;;4899706;29;20298;-78
2022/01/15 15:05:08;;;;;;;9.83;4.73;;;1.10;96.30;;;;;;4899340;29;20921;-78
2022/01/15 15:07:34;;;;;;;7.30;5.47;;;1.10;96.30;;;;;;4883029;29;20200;-77
2022/01/15 15:10:00;;;;;;;9.90;5.00;;;1.00;96.30;;;;;;4883429;29;20483;-78
2022/01/15 15:13:07;;;;;;;7.77;4.63;;;0.90;96.30;;;;;;4900156;29;20207;-78
2022/01/15 15:15:14;;;;;;;8.53;4.83;;;0.80;96.30;;;;;;4891120;29;20469;-77
2022/01/15 15:17:40;;;;;;;8.70;4.97;;;0.70;96.30;;;;;;4919130;29;20436;-79
2022/01/15 15:20:07;;;;;;;10.37;4.87;;;0.50;96.30;;;;;;4919933;29;20548;-79
2022/01/15 15:22:32;;;;;;;10.67;5.23;;;0.30;96.30;;;;;;4901594;29;20176;-77
2022/01/15 15:24:58;;;;;;;10.10;4.07;;;0.20;96.30;;;;;;4901176;29;20800;-78
2022/01/15 15:27:24;;;;;;;13.30;5.23;;;0.00;96.30;;;;;;4901402;29;20240;-78
2022/01/15 15:29:50;;;;;;;9.50;5.03;;;-0.10;96.30;;;;;;4901490;29;21015;-78
2022/01/15 15:32:16;;;;;;;8.47;4.97;;;-0.20;96.30;;;;;;4900921;29;20755;-78
2022/01/15 15:34:41;;;;;;;8.03;5.00;;;-0.30;96.30;;;;;;4901077;29;20222;-78
2022/01/15 15:37:07;;;;;;;12.10;5.40;;;-0.50;96.30;;;;;;4918184;29;20928;-78
2022/01/15 15:39:32;;;;;;;16.27;5.87;;;-0.50;96.30;;;;;;4898104;29;20184;-78
2022/01/15 15:41:59;;;;;;;13.40;5.57;;;-0.60;96.30;;;;;;4899249;29;20177;-78
2022/01/15 15:44:25;;;;;;;16.60;6.57;;;-0.80;96.30;;;;;;4899015;29;20305;-77
2022/01/15 15:46:50;;;;;;;15.90;6.30;;;-0.90;96.30;;;;;;4892776;29;20507;-77
2022/01/15 15:49:16;;;;;;;11.57;5.50;;;-0.90;96.30;;;;;;4917906;29;20204;-77
2022/01/15 15:51:41;;;;;;;13.63;9.30;;;-1.00;96.30;;;;;;4917860;29;20197;-77
2022/01/15 15:54:07;;;;;;;23.90;10.43;;;-1.00;96.30;;;;;;4917674;29;20208;-77
2022/01/15 15:56:33;;;;;;;23.90;11.00;;;-1.10;96.30;;;;;;4900804;29;20212;-77
2022/01/15 15:58:59;;;;;;;17.30;10.37;;;-1.20;96.30;;;;;;4917888;29;20180;-77
2022/01/15 16:01:26;;;;;;;15.00;9.33;;;-1.20;96.30;;;;;;4900674;29;20200;-77
2022/01/15 16:03:52;;;;;;;14.23;7.20;;;-1.30;96.30;;;;;;4900514;29;20504;-77
2022/01/15 16:06:18;;;;;;;11.57;7.17;;;-1.40;96.30;;;;;;4900663;29;20568;-77
2022/01/15 16:08:44;;;;;;;17.00;8.30;;;-1.60;96.30;;;;;;4901051;29;20179;-77
2022/01/15 16:11:09;;;;;;;16.13;8.70;;;-1.70;96.30;;;;;;4900711;29;20527;-77
2022/01/15 16:13:35;;;;;;;26.87;18.30;;;-1.70;96.30;;;;;;4900688;29;20180;-77
2022/01/15 16:16:01;;;;;;;37.20;25.57;;;-1.80;96.30;;;;;;4900692;29;20212;-77
2022/01/15 16:18:26;;;;;;;36.00;21.97;;;-1.80;96.30;;;;;;4918320;29;20204;-77
2022/01/15 16:20:52;;;;;;;24.83;16.53;;;-1.80;96.30;;;;;;4900904;29;20480;-77
2022/01/15 16:23:18;;;;;;;13.60;10.07;;;-1.90;96.30;;;;;;4901073;29;20184;-78
2022/01/15 16:25:45;;;;;;;13.90;7.53;;;-2.00;96.30;;;;;;4901318;29;20188;-78
2022/01/15 16:28:11;;;;;;;12.13;6.97;;;-2.00;96.30;;;;;;4917358;29;20273;-78
2022/01/15 16:30:36;;;;;;;14.57;6.83;;;-2.10;96.30;;;;;;4917103;29;20984;-78
2022/01/15 16:33:02;;;;;;;12.30;6.73;;;-2.10;96.30;;;;;;4900148;29;20499;-77
2022/01/15 16:35:27;;;;;;;12.17;6.90;;;-2.10;96.30;;;;;;4900012;29;20692;-78
2022/01/15 16:37:53;;;;;;;17.87;6.43;;;-2.20;96.30;;;;;;4917358;29;20260;-77
2022/01/15 16:40:18;;;;;;;10.80;5.30;;;-2.20;96.30;;;;;;4900104;29;20748;-77
2022/01/15 16:42:45;;;;;;;15.30;5.10;;;-2.20;96.30;;;;;;4900149;29;20172;-78
2022/01/15 16:45:13;;;;;;;12.50;5.37;;;-2.20;96.30;;;;;;4899720;29;20352;-78
2022/01/15 16:47:39;;;;;;;11.93;6.97;;;-2.20;96.30;;;;;;4900003;29;20540;-78
2022/01/15 16:50:09;;;;;;;11.90;6.87;;;-2.20;96.30;;;;;;4916846;29;20464;-78
2022/01/15 16:52:36;;;;;;;12.13;6.40;;;-2.20;96.30;;;;;;4917012;29;20169;-78
2022/01/15 16:55:03;;;;;;;8.27;5.40;;;-2.30;96.30;;;;;;4916540;29;20844;-78
2022/01/15 16:57:29;;;;;;;14.33;7.57;;;-2.30;96.30;;;;;;4916776;29;20496;-78
2022/01/15 16:59:55;;;;;;;17.70;8.30;;;-2.40;96.30;;;;;;4916684;29;20941;-78
2022/01/15 17:02:20;;;;;;;11.80;6.30;;;-2.30;96.30;;;;;;4899764;29;20419;-77
2022/01/15 17:04:46;;;;;;;13.87;6.87;;;-2.30;96.30;;;;;;4899498;29;20598;-77
2022/01/15 17:07:11;;;;;;;12.80;7.20;;;-2.40;96.30;;;;;;4899749;29;20181;-77
2022/01/15 17:09:37;;;;;;;14.47;7.10;;;-2.50;96.30;;;;;;4916545;29;20202;-78
2022/01/15 17:12:03;;;;;;;24.77;13.10;;;-2.50;96.30;;;;;;4916677;29;20228;-78
2022/01/15 17:14:29;;;;;;;21.97;11.93;;;-2.50;96.30;;;;;;4916116;29;20172;-77
2022/01/15 17:16:55;;;;;;;18.47;8.77;;;-2.60;96.30;;;;;;4916550;29;20412;-77
2022/01/15 17:19:20;;;;;;;12.20;7.57;;;-2.60;96.30;;;;;;4899291;29;20416;-78
2022/01/15 17:21:46;;;;;;;19.43;6.83;;;-2.70;96.30;;;;;;4899313;29;20684;-78
2022/01/15 17:24:11;;;;;;;9.27;6.60;;;-2.80;96.30;;;;;;4899291;29;20176;-78
2022/01/15 17:26:37;;;;;;;14.77;7.30;;;-2.80;96.30;;;;;;4899382;29;20215;-77
2022/01/15 17:29:03;;;;;;;15.27;8.07;;;-2.80;96.30;;;;;;4916380;29;20641;-77
2022/01/15 17:39:14;;;;;;;16.43;8.27;;;-3.00;96.30;;;;;;4962580;23;20521;-78
2022/01/15 17:41:40;;;;;;;16.20;8.10;;;-3.00;96.30;;;;;;4880547;29;20454;-78
2022/01/15 17:44:05;;;;;;;15.63;8.30;;;-3.00;96.30;;;;;;4880390;29;20189;-78
2022/01/15 17:46:31;;;;;;;18.43;9.17;;;-3.10;96.30;;;;;;4880498;29;20201;-78
2022/01/15 17:48:57;;;;;;;19.40;12.13;;;-3.10;96.30;;;;;;4897196;29;20187;-75
2022/01/15 17:51:23;;;;;;;29.53;13.63;;;-3.10;96.30;;;;;;4897033;29;20212;-75
2022/01/15 17:53:49;;;;;;;23.57;12.40;;;-3.20;96.30;;;;;;4896943;29;20204;-77
2022/01/15 17:56:15;;;;;;;18.90;10.40;;;-3.20;96.30;;;;;;4879692;29;20464;-75
2022/01/15 17:58:40;;;;;;;15.37;9.57;;;-3.20;96.30;;;;;;4897132;29;20541;-75
2022/01/15 18:01:07;;;;;;;28.00;13.50;;;-3.20;96.30;;;;;;4897073;29;20188;-75
2022/01/15 18:03:34;;;;;;;21.00;13.20;;;-3.20;96.30;;;;;;4896851;29;20173;-77
2022/01/15 18:06:03;;;;;;;17.87;10.70;;;-3.20;96.30;;;;;;4880119;29;20513;-76
2022/01/15 18:08:30;;;;;;;15.20;9.63;;;-3.20;96.30;;;;;;4897343;29;20417;-75
2022/01/15 18:10:55;;;;;;;19.97;12.57;;;-3.40;96.30;;;;;;4880099;29;20953;-76
2022/01/15 18:13:21;;;;;;;26.40;12.50;;;-3.40;96.30;;;;;;4896711;29;20454;-75
2022/01/15 18:15:48;;;;;;;44.43;13.40;;;-3.40;96.30;;;;;;4896954;29;20211;-75
2022/01/15 18:18:13;;;;;;;21.60;14.10;;;-3.40;96.30;;;;;;4880077;29;20181;-76
2022/01/15 18:20:42;;;;;;;21.33;13.63;;;-3.40;96.30;;;;;;4880024;29;20441;-75
2022/01/15 18:23:08;;;;;;;31.20;14.90;;;-3.40;96.30;;;;;;4879873;29;20824;-79
2022/01/15 18:25:34;;;;;;;24.50;13.53;;;-3.40;96.30;;;;;;4880034;29;20430;-76
2022/01/15 18:27:59;;;;;;;22.13;13.67;;;-3.40;96.30;;;;;;4880118;29;20853;-77
2022/01/15 18:30:25;;;;;;;21.10;13.30;;;-3.40;96.30;;;;;;4896870;29;20236;-77
2022/01/15 18:32:53;;;;;;;23.40;13.13;;;-3.40;96.30;;;;;;4896774;29;20181;-75
2022/01/15 18:35:19;;;;;;;18.67;13.10;;;-3.50;96.30;;;;;;4879827;29;20205;-75
2022/01/15 18:37:45;;;;;;;29.63;13.83;;;-3.40;96.30;;;;;;4902229;29;20535;-77
2022/01/15 18:40:12;;;;;;;17.87;10.10;;;-3.30;96.30;;;;;;4895459;29;20453;-77
2022/01/15 18:42:38;;;;;;;19.73;10.00;;;-3.20;96.30;;;;;;4895509;29;20203;-74
2022/01/15 18:45:05;;;;;;;13.30;8.97;;;-2.90;96.30;;;;;;4895369;29;20922;-77
2022/01/15 18:47:31;;;;;;;15.13;9.03;;;-2.60;96.30;;;;;;4895482;29;20188;-77
2022/01/15 18:49:56;;;;;;;17.80;9.80;;;-2.40;96.30;;;;;;4895269;29;20437;-75
2022/01/15 18:52:22;;;;;;;14.70;10.20;;;-2.30;96.30;;;;;;4896630;29;20189;-77
2022/01/15 18:54:47;;;;;;;19.47;11.70;;;-2.30;96.30;;;;;;4895124;29;20205;-76
2022/01/15 18:57:13;;;;;;;19.90;10.70;;;-2.30;96.30;;;;;;4896641;29;20654;-77
2022/01/15 18:59:38;;;;;;;26.03;14.20;;;-2.30;96.30;;;;;;4896540;29;20340;-77
2022/01/15 19:02:05;;;;;;;24.20;12.73;;;-2.40;96.30;;;;;;4896725;29;20667;-77
2022/01/15 19:04:31;;;;;;;20.07;12.83;;;-2.40;96.30;;;;;;4895066;29;20181;-75
2022/01/15 19:06:57;;;;;;;29.03;19.60;;;-2.50;96.30;;;;;;4895660;29;20519;-74
2022/01/15 19:09:22;;;;;;;65.40;33.00;;;-2.50;96.30;;;;;;4900036;29;20408;-75
2022/01/15 19:11:48;;;;;;;20.07;12.70;;;-2.60;96.30;;;;;;4900016;29;20177;-75
2022/01/15 19:14:13;;;;;;;27.67;13.70;;;-2.70;96.30;;;;;;4898629;29;20244;-77
2022/01/15 19:16:39;;;;;;;24.33;14.40;;;-2.70;96.30;;;;;;4898618;29;20685;-77
2022/01/15 19:19:05;;;;;;;37.80;18.27;;;-2.70;96.30;;;;;;4899740;29;20212;-77
2022/01/15 19:21:30;;;;;;;25.57;18.33;;;-2.70;96.30;;;;;;4899533;29;20274;-77
2022/01/15 19:23:56;;;;;;;28.50;15.27;;;-2.80;96.30;;;;;;4899516;29;20882;-77
2022/01/15 19:26:21;;;;;;;26.53;13.90;;;-2.80;96.30;;;;;;4899565;29;20181;-77
2022/01/15 19:28:47;;;;;;;28.83;15.90;;;-2.90;96.30;;;;;;4899663;29;20248;-77
2022/01/15 19:31:12;;;;;;;20.50;12.10;;;-2.90;96.30;;;;;;4899491;29;20212;-77
2022/01/15 19:33:38;;;;;;;17.23;11.17;;;-2.80;96.30;;;;;;4898048;29;20185;-77
2022/01/15 19:36:04;;;;;;;17.93;11.50;;;-2.70;96.30;;;;;;4912151;29;20216;-77
2022/01/15 19:38:29;;;;;;;15.20;10.23;;;-2.70;96.30;;;;;;4918125;29;20203;-77
2022/01/15 19:40:56;;;;;;;19.63;12.23;;;-2.70;96.30;;;;;;4918133;29;20203;-77
2022/01/15 19:43:22;;;;;;;27.13;14.27;;;-2.80;96.30;;;;;;4918007;29;20177;-77
2022/01/15 19:45:49;;;;;;;29.03;14.90;;;-2.70;96.30;;;;;;4901222;29;20424;-77
2022/01/15 19:48:15;;;;;;;26.77;15.50;;;-2.70;96.30;;;;;;4901052;29;20436;-77
2022/01/15 19:50:41;;;;;;;24.80;16.30;;;-2.60;96.30;;;;;;4901096;29;20452;-77
2022/01/15 19:53:07;;;;;;;30.60;15.97;;;-2.60;96.30;;;;;;4917940;29;20176;-77
2022/01/15 19:55:33;;;;;;;29.60;15.17;;;-2.70;96.30;;;;;;4900778;29;20557;-77
2022/01/15 19:57:59;;;;;;;20.70;12.90;;;-2.70;96.30;;;;;;4917980;29;20416;-77
2022/01/15 20:00:28;;;;;;;23.37;15.10;;;-2.80;96.30;;;;;;4916651;29;20452;-77
2022/01/15 20:02:55;;;;;;;22.27;13.60;;;-2.80;96.30;;;;;;4917810;29;20177;-77
2022/01/15 20:05:21;;;;;;;25.53;16.23;;;-2.70;96.30;;;;;;4917548;29;20472;-77
2022/01/15 20:07:48;;;;;;;32.37;17.23;;;-2.70;96.30;;;;;;4900923;29;20428;-77
2022/01/15 20:10:15;;;;;;;31.27;15.90;;;-2.80;96.30;;;;;;4917590;29;20439;-77
2022/01/15 20:12:40;;;;;;;31.83;13.83;;;-2.70;96.30;;;;;;4900726;29;20476;-77
2022/01/15 20:15:06;;;;;;;23.63;10.97;;;-2.70;96.30;;;;;;4917215;29;20468;-77
2022/01/15 20:17:32;;;;;;;15.40;9.40;;;-2.70;96.30;;;;;;4917234;29;20653;-77
2022/01/15 20:19:57;;;;;;;15.57;9.97;;;-2.60;96.30;;;;;;4899897;29;20235;-77
2022/01/15 20:22:23;;;;;;;18.00;10.70;;;-2.60;96.30;;;;;;4900493;29;20633;-77
2022/01/15 20:24:49;;;;;;;18.97;10.63;;;-2.50;96.30;;;;;;4900301;29;20210;-77
2022/01/15 20:27:18;;;;;;;27.60;12.50;;;-2.50;96.30;;;;;;4900410;29;20176;-77
2022/01/15 20:29:44;;;;;;;30.27;15.30;;;-2.50;96.30;;;;;;4917231;29;20432;-77
2022/01/15 20:32:09;;;;;;;72.23;30.67;;;-2.50;96.30;;;;;;4900821;29;20420;-77
2022/01/15 20:34:35;;;;;;;23.07;12.33;;;-2.50;96.30;;;;;;4915618;29;20413;-76
2022/01/15 20:37:00;;;;;;;28.30;13.63;;;-2.40;96.30;;;;;;4897691;29;20181;-76
2022/01/15 20:39:26;;;;;;;35.70;17.60;;;-2.30;96.30;;;;;;4936159;29;20179;-77
2022/01/15 20:41:52;;;;;;;45.57;18.53;;;-2.20;96.30;;;;;;4919060;29;20174;-77
2022/01/15 20:44:18;;;;;;;16.70;10.00;;;-2.20;96.30;;;;;;4934626;29;20175;-77
2022/01/15 20:46:43;;;;;;;20.57;12.30;;;-2.30;96.30;;;;;;4935841;29;20756;-77
2022/01/15 20:49:09;;;;;;;19.37;9.60;;;-2.20;96.30;;;;;;4936021;29;20231;-77
2022/01/15 20:51:35;;;;;;;17.80;8.73;;;-2.20;96.30;;;;;;4918855;29;20278;-77
2022/01/15 20:54:00;;;;;;;14.03;8.70;;;-2.20;96.30;;;;;;4935658;29;20647;-77
2022/01/15 20:56:26;;;;;;;20.40;11.40;;;-2.20;96.30;;;;;;4918646;29;20211;-77
2022/01/15 20:58:52;;;;;;;22.53;11.47;;;-2.30;96.30;;;;;;4918752;29;20644;-77
2022/01/15 21:01:19;;;;;;;23.27;11.30;;;-2.40;96.30;;;;;;4918522;29;20196;-77
2022/01/15 21:03:45;;;;;;;13.43;8.27;;;-2.50;96.30;;;;;;4918420;29;20491;-77
2022/01/15 21:06:11;;;;;;;17.13;10.80;;;-2.60;96.30;;;;;;4918636;29;20420;-77
2022/01/15 21:08:38;;;;;;;14.17;10.27;;;-2.80;96.30;;;;;;4918580;29;20730;-77
2022/01/15 21:11:04;;;;;;;23.57;9.57;;;-3.00;96.30;;;;;;4935472;29;20192;-77
2022/01/15 21:13:30;;;;;;;12.50;7.73;;;-3.20;96.30;;;;;;4935319;29;20415;-77
2022/01/15 21:15:55;;;;;;;15.47;10.93;;;-3.20;96.30;;;;;;4935460;29;20818;-77
2022/01/15 21:18:21;;;;;;;14.70;8.70;;;-3.30;96.30;;;;;;4935365;29;20176;-77
2022/01/15 21:20:46;;;;;;;17.00;6.57;;;-3.40;96.30;;;;;;4935442;29;20664;-77
2022/01/15 21:23:13;;;;;;;15.40;6.30;;;-3.50;96.30;;;;;;4933459;29;20211;-77
2022/01/15 21:25:38;;;;;;;15.93;7.73;;;-3.60;96.30;;;;;;4904157;29;20522;-77
2022/01/15 21:28:04;;;;;;;10.63;7.00;;;-3.70;96.30;;;;;;4899440;29;20641;-76
2022/01/15 21:30:31;;;;;;;11.90;6.87;;;-3.70;96.30;;;;;;4915700;29;20842;-75
2022/01/15 21:32:58;;;;;;;11.87;7.07;;;-3.70;96.30;;;;;;4916064;29;20263;-75
2022/01/15 21:35:25;;;;;;;12.27;8.27;;;-3.70;96.30;;;;;;4923361;29;20982;-78
2022/01/15 21:37:50;;;;;;;15.27;6.70;;;-3.80;96.30;;;;;;4905514;29;20444;-76
2022/01/15 21:40:16;;;;;;;14.00;7.00;;;-3.90;96.30;;;;;;4897336;29;20793;-77
2022/01/15 21:42:41;;;;;;;10.60;6.10;;;-3.90;96.30;;;;;;4897288;29;20582;-77
2022/01/15 21:45:09;;;;;;;16.17;5.80;;;-3.90;96.30;;;;;;4897102;29;20187;-76
2022/01/15 21:47:35;;;;;;;13.47;6.73;;;-4.00;96.30;;;;;;4897133;29;20177;-75
2022/01/15 21:50:02;;;;;;;19.20;6.40;;;-4.00;96.30;;;;;;4880030;29;20480;-75
2022/01/15 21:52:28;;;;;;;10.73;5.77;;;-4.00;96.30;;;;;;4880440;29;20433;-76